aviador You're here:

K1YT Decoded Metar

in
Report Time2017-06-24 00:58:00
UTC Time2017-06-24 01:43:03
Flight Rules vfr VFR
Wind210° at 05 kt
W.Rank210° ranks 9
Current wind is below 210° avg. (6.3)
Visibility9999 m
Phenomena:N/A
Clouds:N/A
Expected CloudBase > 10,800 ft AGL from Temp-Dew spread
CeilingNone
Temp30°C
Dew Point03°C (18% RH)
Heat Index28.2°C
AAT26.7°C
QNH1020 hPa
Raw Report
METAR K1YT 240058Z AUTO 21005KT 10SM CLR 30/03 A3011 RMK AO2 SLPNO
T02950032 $=

Extra information for K1YT:More info

Social comments